sensor_id;sensor_type;location;lat;lon;timestamp;temperature;humidity
1107;DHT22;540;49.448;8.612;2022-08-03T00:02:16;23.90;64.70
1107;DHT22;540;49.448;8.612;2022-08-03T00:04:45;24.00;60.00
1107;DHT22;540;49.448;8.612;2022-08-03T00:07:13;24.00;58.20
1107;DHT22;540;49.448;8.612;2022-08-03T00:09:41;24.00;58.30
1107;DHT22;540;49.448;8.612;2022-08-03T00:12:09;23.90;57.30
1107;DHT22;540;49.448;8.612;2022-08-03T00:14:37;23.90;57.30
1107;DHT22;540;49.448;8.612;2022-08-03T00:17:05;23.90;57.00
1107;DHT22;540;49.448;8.612;2022-08-03T00:19:33;23.70;59.30
1107;DHT22;540;49.448;8.612;2022-08-03T00:22:02;23.50;61.90
1107;DHT22;540;49.448;8.612;2022-08-03T00:24:30;23.70;62.50
1107;DHT22;540;49.448;8.612;2022-08-03T00:26:58;23.70;60.90
1107;DHT22;540;49.448;8.612;2022-08-03T00:29:26;23.80;58.80
1107;DHT22;540;49.448;8.612;2022-08-03T00:31:54;23.60;58.20
1107;DHT22;540;49.448;8.612;2022-08-03T00:34:26;23.50;58.60
1107;DHT22;540;49.448;8.612;2022-08-03T00:37:15;23.40;58.30
1107;DHT22;540;49.448;8.612;2022-08-03T00:39:43;23.50;56.60
1107;DHT22;540;49.448;8.612;2022-08-03T00:42:13;23.40;56.10
1107;DHT22;540;49.448;8.612;2022-08-03T00:44:43;23.40;56.50
1107;DHT22;540;49.448;8.612;2022-08-03T00:47:11;23.30;57.90
1107;DHT22;540;49.448;8.612;2022-08-03T00:49:39;23.20;58.30
1107;DHT22;540;49.448;8.612;2022-08-03T00:52:08;23.20;58.00
1107;DHT22;540;49.448;8.612;2022-08-03T00:54:38;23.60;57.30
1107;DHT22;540;49.448;8.612;2022-08-03T00:57:06;23.60;56.20
1107;DHT22;540;49.448;8.612;2022-08-03T00:59:34;23.40;55.70
1107;DHT22;540;49.448;8.612;2022-08-03T01:02:04;23.40;55.60
1107;DHT22;540;49.448;8.612;2022-08-03T01:04:32;23.20;57.40
1107;DHT22;540;49.448;8.612;2022-08-03T01:07:05;23.30;57.40
1107;DHT22;540;49.448;8.612;2022-08-03T01:09:45;23.30;57.00
1107;DHT22;540;49.448;8.612;2022-08-03T01:12:23;23.40;63.30
1107;DHT22;540;49.448;8.612;2022-08-03T01:14:57;22.60;68.60
1107;DHT22;540;49.448;8.612;2022-08-03T01:17:33;22.50;70.50
1107;DHT22;540;49.448;8.612;2022-08-03T01:20:06;22.40;70.40
1107;DHT22;540;49.448;8.612;2022-08-03T01:22:56;22.30;70.40
1107;DHT22;540;49.448;8.612;2022-08-03T01:25:37;22.10;71.60
1107;DHT22;540;49.448;8.612;2022-08-03T01:28:21;22.20;74.30
1107;DHT22;540;49.448;8.612;2022-08-03T01:30:58;22.30;72.80
1107;DHT22;540;49.448;8.612;2022-08-03T01:33:34;22.10;71.30
1107;DHT22;540;49.448;8.612;2022-08-03T01:36:06;22.50;69.30
1107;DHT22;540;49.448;8.612;2022-08-03T01:38:40;22.40;66.00
1107;DHT22;540;49.448;8.612;2022-08-03T01:41:12;22.20;63.40
1107;DHT22;540;49.448;8.612;2022-08-03T01:43:43;22.00;65.10
1107;DHT22;540;49.448;8.612;2022-08-03T01:46:37;21.70;65.40
1107;DHT22;540;49.448;8.612;2022-08-03T01:49:13;22.10;65.60
1107;DHT22;540;49.448;8.612;2022-08-03T01:51:43;21.60;65.10
1107;DHT22;540;49.448;8.612;2022-08-03T01:54:31;22.00;65.80
1107;DHT22;540;49.448;8.612;2022-08-03T01:57:02;22.10;65.60
1107;DHT22;540;49.448;8.612;2022-08-03T01:59:32;22.10;68.10
1107;DHT22;540;49.448;8.612;2022-08-03T02:02:02;22.10;68.70
1107;DHT22;540;49.448;8.612;2022-08-03T02:04:52;22.30;68.00
1107;DHT22;540;49.448;8.612;2022-08-03T02:07:20;22.30;67.00
1107;DHT22;540;49.448;8.612;2022-08-03T02:09:51;22.40;65.30
1107;DHT22;540;49.448;8.612;2022-08-03T02:12:22;22.40;64.10
1107;DHT22;540;49.448;8.612;2022-08-03T02:14:50;22.40;64.20
1107;DHT22;540;49.448;8.612;2022-08-03T02:17:20;22.30;65.90
1107;DHT22;540;49.448;8.612;2022-08-03T02:20:07;22.40;65.20
1107;DHT22;540;49.448;8.612;2022-08-03T02:22:38;22.40;62.10
1107;DHT22;540;49.448;8.612;2022-08-03T02:25:08;22.40;61.10
1107;DHT22;540;49.448;8.612;2022-08-03T02:27:38;22.30;62.50
1107;DHT22;540;49.448;8.612;2022-08-03T02:30:11;22.20;63.10
1107;DHT22;540;49.448;8.612;2022-08-03T02:32:43;22.30;63.80
1107;DHT22;540;49.448;8.612;2022-08-03T02:35:14;22.20;65.90
1107;DHT22;540;49.448;8.612;2022-08-03T02:37:48;22.10;66.60
1107;DHT22;540;49.448;8.612;2022-08-03T02:40:17;22.10;65.60
1107;DHT22;540;49.448;8.612;2022-08-03T02:42:48;22.20;64.30
1107;DHT22;540;49.448;8.612;2022-08-03T02:45:19;22.30;63.80
1107;DHT22;540;49.448;8.612;2022-08-03T02:47:51;22.30;61.60
1107;DHT22;540;49.448;8.612;2022-08-03T02:50:22;22.20;61.30
1107;DHT22;540;49.448;8.612;2022-08-03T02:52:51;22.40;60.60
1107;DHT22;540;49.448;8.612;2022-08-03T02:55:20;22.40;60.20
1107;DHT22;540;49.448;8.612;2022-08-03T02:57:49;22.40;60.30
1107;DHT22;540;49.448;8.612;2022-08-03T03:00:18;22.40;60.10
1107;DHT22;540;49.448;8.612;2022-08-03T03:02:56;22.00;59.60
1107;DHT22;540;49.448;8.612;2022-08-03T03:05:26;22.60;60.30
1107;DHT22;540;49.448;8.612;2022-08-03T03:08:16;22.40;62.00
1107;DHT22;540;49.448;8.612;2022-08-03T03:10:53;22.10;63.00
1107;DHT22;540;49.448;8.612;2022-08-03T03:13:22;21.90;63.80
1107;DHT22;540;49.448;8.612;2022-08-03T03:15:51;21.90;64.30
1107;DHT22;540;49.448;8.612;2022-08-03T03:18:22;21.90;64.70
1107;DHT22;540;49.448;8.612;2022-08-03T03:20:51;22.00;65.40
1107;DHT22;540;49.448;8.612;2022-08-03T03:23:21;22.10;67.50
1107;DHT22;540;49.448;8.612;2022-08-03T03:25:49;21.60;72.90
1107;DHT22;540;49.448;8.612;2022-08-03T03:28:18;21.80;79.40
1107;DHT22;540;49.448;8.612;2022-08-03T03:30:46;22.00;84.10
1107;DHT22;540;49.448;8.612;2022-08-03T03:33:19;21.70;85.30
1107;DHT22;540;49.448;8.612;2022-08-03T03:35:48;21.70;85.30
1107;DHT22;540;49.448;8.612;2022-08-03T03:38:17;21.60;85.20
1107;DHT22;540;49.448;8.612;2022-08-03T03:40:45;21.50;83.30
1107;DHT22;540;49.448;8.612;2022-08-03T03:43:14;21.50;83.60
1107;DHT22;540;49.448;8.612;2022-08-03T03:45:44;21.10;82.50
1107;DHT22;540;49.448;8.612;2022-08-03T03:48:12;21.40;82.30
1107;DHT22;540;49.448;8.612;2022-08-03T03:50:42;21.50;81.70
1107;DHT22;540;49.448;8.612;2022-08-03T03:53:13;21.40;81.10
1107;DHT22;540;49.448;8.612;2022-08-03T03:55:41;21.20;83.20
1107;DHT22;540;49.448;8.612;2022-08-03T03:58:29;21.10;84.70
1107;DHT22;540;49.448;8.612;2022-08-03T04:00:57;21.10;87.10
1107;DHT22;540;49.448;8.612;2022-08-03T04:03:25;20.80;89.20
1107;DHT22;540;49.448;8.612;2022-08-03T04:06:09;21.10;88.90
1107;DHT22;540;49.448;8.612;2022-08-03T04:08:56;21.10;88.00
1107;DHT22;540;49.448;8.612;2022-08-03T04:11:46;21.00;88.90
1107;DHT22;540;49.448;8.612;2022-08-03T04:14:18;21.10;88.80
1107;DHT22;540;49.448;8.612;2022-08-03T04:16:49;20.80;87.70
1107;DHT22;540;49.448;8.612;2022-08-03T04:19:23;20.90;89.60
1107;DHT22;540;49.448;8.612;2022-08-03T04:21:58;21.20;89.20
1107;DHT22;540;49.448;8.612;2022-08-03T04:24:32;20.80;87.30
1107;DHT22;540;49.448;8.612;2022-08-03T04:27:02;21.00;86.30
1107;DHT22;540;49.448;8.612;2022-08-03T04:29:33;21.00;87.30
1107;DHT22;540;49.448;8.612;2022-08-03T04:32:12;21.00;88.20
1107;DHT22;540;49.448;8.612;2022-08-03T04:34:41;20.90;90.60
1107;DHT22;540;49.448;8.612;2022-08-03T04:37:11;20.50;90.00
1107;DHT22;540;49.448;8.612;2022-08-03T04:39:43;20.80;90.90
1107;DHT22;540;49.448;8.612;2022-08-03T04:42:14;20.90;92.50
1107;DHT22;540;49.448;8.612;2022-08-03T04:44:43;21.10;93.50
1107;DHT22;540;49.448;8.612;2022-08-03T04:47:14;20.80;94.60
1107;DHT22;540;49.448;8.612;2022-08-03T04:49:44;20.80;94.50
1107;DHT22;540;49.448;8.612;2022-08-03T04:52:12;20.80;93.70
1107;DHT22;540;49.448;8.612;2022-08-03T04:54:43;20.40;91.90
1107;DHT22;540;49.448;8.612;2022-08-03T04:57:17;20.70;91.90
1107;DHT22;540;49.448;8.612;2022-08-03T04:59:49;21.10;90.40
1107;DHT22;540;49.448;8.612;2022-08-03T05:02:27;20.90;90.60
1107;DHT22;540;49.448;8.612;2022-08-03T05:04:55;21.40;89.50
1107;DHT22;540;49.448;8.612;2022-08-03T05:07:23;21.50;84.40
1107;DHT22;540;49.448;8.612;2022-08-03T05:09:52;21.50;81.60
1107;DHT22;540;49.448;8.612;2022-08-03T05:12:29;21.60;81.10
1107;DHT22;540;49.448;8.612;2022-08-03T05:14:59;21.50;80.00
1107;DHT22;540;49.448;8.612;2022-08-03T05:17:27;21.80;73.60
1107;DHT22;540;49.448;8.612;2022-08-03T05:19:55;21.80;71.40
1107;DHT22;540;49.448;8.612;2022-08-03T05:22:23;21.50;70.80
1107;DHT22;540;49.448;8.612;2022-08-03T05:24:53;21.90;69.70
1107;DHT22;540;49.448;8.612;2022-08-03T05:27:21;21.50;68.60
1107;DHT22;540;49.448;8.612;2022-08-03T05:29:49;21.90;68.60
1107;DHT22;540;49.448;8.612;2022-08-03T05:32:17;22.00;67.60
1107;DHT22;540;49.448;8.612;2022-08-03T05:34:46;22.10;67.80
1107;DHT22;540;49.448;8.612;2022-08-03T05:37:13;22.20;66.50
1107;DHT22;540;49.448;8.612;2022-08-03T05:39:41;22.40;67.40
1107;DHT22;540;49.448;8.612;2022-08-03T05:42:12;22.40;66.00
1107;DHT22;540;49.448;8.612;2022-08-03T05:44:41;22.50;65.80
1107;DHT22;540;49.448;8.612;2022-08-03T05:47:09;22.60;65.60
1107;DHT22;540;49.448;8.612;2022-08-03T05:49:37;22.70;65.60
1107;DHT22;540;49.448;8.612;2022-08-03T05:52:05;22.80;65.00
1107;DHT22;540;49.448;8.612;2022-08-03T05:54:48;22.90;64.60
1107;DHT22;540;49.448;8.612;2022-08-03T05:57:24;23.00;64.30
1107;DHT22;540;49.448;8.612;2022-08-03T05:59:52;23.30;63.20
1107;DHT22;540;49.448;8.612;2022-08-03T06:02:24;23.20;62.50
1107;DHT22;540;49.448;8.612;2022-08-03T06:04:52;23.30;62.50
1107;DHT22;540;49.448;8.612;2022-08-03T06:07:20;23.50;62.10
1107;DHT22;540;49.448;8.612;2022-08-03T06:09:48;23.50;60.90
1107;DHT22;540;49.448;8.612;2022-08-03T06:12:37;23.70;62.00
1107;DHT22;540;49.448;8.612;2022-08-03T06:15:08;23.60;60.80
1107;DHT22;540;49.448;8.612;2022-08-03T06:17:44;23.70;60.40
1107;DHT22;540;49.448;8.612;2022-08-03T06:20:14;23.90;60.10
1107;DHT22;540;49.448;8.612;2022-08-03T06:22:42;24.00;60.40
1107;DHT22;540;49.448;8.612;2022-08-03T06:25:25;24.30;59.20
1107;DHT22;540;49.448;8.612;2022-08-03T06:27:55;24.50;58.30
1107;DHT22;540;49.448;8.612;2022-08-03T06:30:25;24.70;58.00
1107;DHT22;540;49.448;8.612;2022-08-03T06:32:53;24.80;57.70
1107;DHT22;540;49.448;8.612;2022-08-03T06:35:21;24.90;56.80
1107;DHT22;540;49.448;8.612;2022-08-03T06:37:50;24.90;56.70
1107;DHT22;540;49.448;8.612;2022-08-03T06:40:20;25.10;56.80
1107;DHT22;540;49.448;8.612;2022-08-03T06:42:57;25.40;56.60
1107;DHT22;540;49.448;8.612;2022-08-03T06:45:26;25.80;56.40
1107;DHT22;540;49.448;8.612;2022-08-03T06:48:01;25.80;56.20
1107;DHT22;540;49.448;8.612;2022-08-03T06:50:30;26.10;56.10
1107;DHT22;540;49.448;8.612;2022-08-03T06:53:00;26.50;54.90
1107;DHT22;540;49.448;8.612;2022-08-03T06:55:29;27.40;52.20
1107;DHT22;540;49.448;8.612;2022-08-03T06:57:58;28.40;48.90
1107;DHT22;540;49.448;8.612;2022-08-03T07:00:29;29.10;46.80
1107;DHT22;540;49.448;8.612;2022-08-03T07:02:57;30.10;45.00
1107;DHT22;540;49.448;8.612;2022-08-03T07:05:25;30.90;42.80
1107;DHT22;540;49.448;8.612;2022-08-03T07:07:54;31.50;40.70
1107;DHT22;540;49.448;8.612;2022-08-03T07:10:23;32.40;39.20
1107;DHT22;540;49.448;8.612;2022-08-03T07:12:51;32.80;37.40
1107;DHT22;540;49.448;8.612;2022-08-03T07:15:24;33.60;36.20
1107;DHT22;540;49.448;8.612;2022-08-03T07:18:12;34.20;35.00
1107;DHT22;540;49.448;8.612;2022-08-03T07:20:40;34.90;33.10
1107;DHT22;540;49.448;8.612;2022-08-03T07:23:08;34.80;32.30
1107;DHT22;540;49.448;8.612;2022-08-03T07:25:45;34.50;32.40
1107;DHT22;540;49.448;8.612;2022-08-03T07:28:13;35.00;31.30
1107;DHT22;540;49.448;8.612;2022-08-03T07:30:42;35.60;30.00
1107;DHT22;540;49.448;8.612;2022-08-03T07:33:10;36.10;29.30
1107;DHT22;540;49.448;8.612;2022-08-03T07:35:38;36.40;28.70
1107;DHT22;540;49.448;8.612;2022-08-03T07:38:06;36.60;28.40
1107;DHT22;540;49.448;8.612;2022-08-03T07:40:34;36.70;27.90
1107;DHT22;540;49.448;8.612;2022-08-03T07:43:02;36.90;27.60
1107;DHT22;540;49.448;8.612;2022-08-03T07:45:30;37.10;27.40
1107;DHT22;540;49.448;8.612;2022-08-03T07:48:00;37.50;26.90
1107;DHT22;540;49.448;8.612;2022-08-03T07:50:28;37.60;26.40
1107;DHT22;540;49.448;8.612;2022-08-03T07:52:56;37.50;26.60
1107;DHT22;540;49.448;8.612;2022-08-03T07:55:25;37.50;26.20
1107;DHT22;540;49.448;8.612;2022-08-03T07:58:04;38.30;25.50
1107;DHT22;540;49.448;8.612;2022-08-03T08:00:32;38.70;24.60
1107;DHT22;540;49.448;8.612;2022-08-03T08:03:02;38.90;24.10
1107;DHT22;540;49.448;8.612;2022-08-03T08:05:31;39.00;23.60
1107;DHT22;540;49.448;8.612;2022-08-03T08:07:59;39.00;24.00
1107;DHT22;540;49.448;8.612;2022-08-03T08:10:27;39.00;24.10
1107;DHT22;540;49.448;8.612;2022-08-03T08:13:03;38.60;24.40
1107;DHT22;540;49.448;8.612;2022-08-03T08:15:31;39.10;24.10
1107;DHT22;540;49.448;8.612;2022-08-03T08:18:04;39.80;23.40
1107;DHT22;540;49.448;8.612;2022-08-03T08:20:53;40.10;22.90
1107;DHT22;540;49.448;8.612;2022-08-03T08:23:22;40.20;22.40
1107;DHT22;540;49.448;8.612;2022-08-03T08:26:10;40.50;22.20
1107;DHT22;540;49.448;8.612;2022-08-03T08:28:39;40.60;21.90
1107;DHT22;540;49.448;8.612;2022-08-03T08:31:38;40.30;22.10
1107;DHT22;540;49.448;8.612;2022-08-03T08:34:07;40.30;21.90
1107;DHT22;540;49.448;8.612;2022-08-03T08:36:36;40.70;21.80
1107;DHT22;540;49.448;8.612;2022-08-03T08:39:03;40.70;21.90
1107;DHT22;540;49.448;8.612;2022-08-03T08:41:31;41.20;21.20
1107;DHT22;540;49.448;8.612;2022-08-03T08:44:00;41.10;21.30
1107;DHT22;540;49.448;8.612;2022-08-03T08:46:31;41.40;21.20
1107;DHT22;540;49.448;8.612;2022-08-03T08:48:59;41.60;20.60
1107;DHT22;540;49.448;8.612;2022-08-03T08:51:33;41.40;20.50
1107;DHT22;540;49.448;8.612;2022-08-03T08:54:23;40.90;21.10
1107;DHT22;540;49.448;8.612;2022-08-03T08:56:52;40.40;21.50
1107;DHT22;540;49.448;8.612;2022-08-03T08:59:25;40.70;21.40
1107;DHT22;540;49.448;8.612;2022-08-03T09:02:13;41.10;21.30
1107;DHT22;540;49.448;8.612;2022-08-03T09:04:41;40.90;21.30
1107;DHT22;540;49.448;8.612;2022-08-03T09:07:12;41.00;21.20
1107;DHT22;540;49.448;8.612;2022-08-03T09:09:47;41.30;21.10
1107;DHT22;540;49.448;8.612;2022-08-03T09:12:38;41.30;21.10
1107;DHT22;540;49.448;8.612;2022-08-03T09:15:19;41.90;20.40
1107;DHT22;540;49.448;8.612;2022-08-03T09:17:48;42.30;19.90
1107;DHT22;540;49.448;8.612;2022-08-03T09:20:18;42.00;20.00
1107;DHT22;540;49.448;8.612;2022-08-03T09:22:56;42.40;19.70
1107;DHT22;540;49.448;8.612;2022-08-03T09:25:29;42.50;19.70
1107;DHT22;540;49.448;8.612;2022-08-03T09:28:06;42.70;19.40
1107;DHT22;540;49.448;8.612;2022-08-03T09:30:37;42.90;19.30
1107;DHT22;540;49.448;8.612;2022-08-03T09:33:06;43.10;19.10
1107;DHT22;540;49.448;8.612;2022-08-03T09:35:40;43.30;18.80
1107;DHT22;540;49.448;8.612;2022-08-03T09:38:25;42.70;19.00
1107;DHT22;540;49.448;8.612;2022-08-03T09:40:53;42.10;19.50
1107;DHT22;540;49.448;8.612;2022-08-03T09:43:26;41.60;19.70
1107;DHT22;540;49.448;8.612;2022-08-03T09:46:02;41.80;20.60
1107;DHT22;540;49.448;8.612;2022-08-03T09:48:31;41.80;19.90
1107;DHT22;540;49.448;8.612;2022-08-03T09:51:01;42.00;19.80
1107;DHT22;540;49.448;8.612;2022-08-03T09:53:44;42.70;19.30
1107;DHT22;540;49.448;8.612;2022-08-03T09:56:40;43.50;18.70
1107;DHT22;540;49.448;8.612;2022-08-03T09:59:08;43.50;18.70
1107;DHT22;540;49.448;8.612;2022-08-03T10:01:37;43.60;18.40
1107;DHT22;540;49.448;8.612;2022-08-03T10:04:14;43.30;18.70
1107;DHT22;540;49.448;8.612;2022-08-03T10:06:43;42.90;18.40
1107;DHT22;540;49.448;8.612;2022-08-03T10:09:14;41.90;19.90
1107;DHT22;540;49.448;8.612;2022-08-03T10:11:43;41.60;20.60
1107;DHT22;540;49.448;8.612;2022-08-03T10:14:12;41.60;20.60
1107;DHT22;540;49.448;8.612;2022-08-03T10:16:45;41.70;20.60
1107;DHT22;540;49.448;8.612;2022-08-03T10:19:13;42.30;20.20
1107;DHT22;540;49.448;8.612;2022-08-03T10:21:46;43.00;19.30
1107;DHT22;540;49.448;8.612;2022-08-03T10:24:23;43.10;19.00
1107;DHT22;540;49.448;8.612;2022-08-03T10:26:52;43.00;19.30
1107;DHT22;540;49.448;8.612;2022-08-03T10:29:23;42.60;19.70
1107;DHT22;540;49.448;8.612;2022-08-03T10:31:57;42.00;20.40
1107;DHT22;540;49.448;8.612;2022-08-03T10:34:26;41.60;20.90
1107;DHT22;540;49.448;8.612;2022-08-03T10:36:57;41.00;21.20
1107;DHT22;540;49.448;8.612;2022-08-03T10:39:28;40.90;21.30
1107;DHT22;540;49.448;8.612;2022-08-03T10:41:57;40.50;21.60
1107;DHT22;540;49.448;8.612;2022-08-03T10:44:32;40.70;21.70
1107;DHT22;540;49.448;8.612;2022-08-03T10:47:04;40.40;21.90
1107;DHT22;540;49.448;8.612;2022-08-03T10:49:32;40.30;22.00
1107;DHT22;540;49.448;8.612;2022-08-03T10:52:02;40.40;22.20
1107;DHT22;540;49.448;8.612;2022-08-03T10:54:52;41.00;21.40
1107;DHT22;540;49.448;8.612;2022-08-03T10:57:49;40.80;21.30
1107;DHT22;540;49.448;8.612;2022-08-03T11:00:25;40.80;21.80
1107;DHT22;540;49.448;8.612;2022-08-03T11:05:41;38.80;23.70
1107;DHT22;540;49.448;8.612;2022-08-03T11:08:33;38.40;24.30
1107;DHT22;540;49.448;8.612;2022-08-03T11:11:23;38.50;24.30
1107;DHT22;540;49.448;8.612;2022-08-03T11:13:56;39.30;23.50
1107;DHT22;540;49.448;8.612;2022-08-03T11:16:26;39.60;23.00
1107;DHT22;540;49.448;8.612;2022-08-03T11:18:58;39.40;23.30
1107;DHT22;540;49.448;8.612;2022-08-03T11:25:06;39.00;24.00
1107;DHT22;540;49.448;8.612;2022-08-03T11:28:27;39.30;23.40
1107;DHT22;540;49.448;8.612;2022-08-03T11:30:56;39.50;23.50
1107;DHT22;540;49.448;8.612;2022-08-03T11:34:04;39.80;22.70
1107;DHT22;540;49.448;8.612;2022-08-03T11:39:37;39.20;23.50
1107;DHT22;540;49.448;8.612;2022-08-03T11:45:08;40.30;22.30
1107;DHT22;540;49.448;8.612;2022-08-03T11:47:38;39.90;22.10
1107;DHT22;540;49.448;8.612;2022-08-03T11:50:17;39.50;22.70
1107;DHT22;540;49.448;8.612;2022-08-03T11:52:46;39.10;23.10
1107;DHT22;540;49.448;8.612;2022-08-03T11:55:17;39.10;23.20
1107;DHT22;540;49.448;8.612;2022-08-03T11:57:46;39.30;22.90
1107;DHT22;540;49.448;8.612;2022-08-03T12:00:35;39.70;22.60
1107;DHT22;540;49.448;8.612;2022-08-03T12:03:05;39.80;22.60
1107;DHT22;540;49.448;8.612;2022-08-03T12:05:35;39.80;22.50
1107;DHT22;540;49.448;8.612;2022-08-03T12:08:03;39.70;22.60
1107;DHT22;540;49.448;8.612;2022-08-03T12:10:32;39.70;22.70
1107;DHT22;540;49.448;8.612;2022-08-03T12:13:02;39.90;22.60
1107;DHT22;540;49.448;8.612;2022-08-03T12:15:56;39.80;23.10
1107;DHT22;540;49.448;8.612;2022-08-03T12:18:24;39.80;22.90
1107;DHT22;540;49.448;8.612;2022-08-03T12:20:54;39.50;22.70
1107;DHT22;540;49.448;8.612;2022-08-03T12:23:29;39.50;23.10
1107;DHT22;540;49.448;8.612;2022-08-03T12:26:05;39.40;23.20
1107;DHT22;540;49.448;8.612;2022-08-03T12:28:33;39.00;23.30
1107;DHT22;540;49.448;8.612;2022-08-03T12:31:07;39.20;23.40
1107;DHT22;540;49.448;8.612;2022-08-03T12:33:53;39.00;23.60
1107;DHT22;540;49.448;8.612;2022-08-03T12:36:22;38.70;23.90
1107;DHT22;540;49.448;8.612;2022-08-03T12:38:54;38.70;23.80
1107;DHT22;540;49.448;8.612;2022-08-03T12:41:28;38.50;23.90
1107;DHT22;540;49.448;8.612;2022-08-03T12:43:56;38.50;24.20
1107;DHT22;540;49.448;8.612;2022-08-03T12:46:29;37.70;24.80
1107;DHT22;540;49.448;8.612;2022-08-03T12:49:02;38.00;25.00
1107;DHT22;540;49.448;8.612;2022-08-03T12:51:33;38.40;24.60
1107;DHT22;540;49.448;8.612;2022-08-03T12:54:02;38.50;24.40
1107;DHT22;540;49.448;8.612;2022-08-03T12:56:30;38.60;24.30
1107;DHT22;540;49.448;8.612;2022-08-03T12:58:58;38.10;24.70
1107;DHT22;540;49.448;8.612;2022-08-03T13:01:35;37.80;24.90
1107;DHT22;540;49.448;8.612;2022-08-03T13:04:28;37.60;25.10
1107;DHT22;540;49.448;8.612;2022-08-03T13:07:00;37.10;25.70
1107;DHT22;540;49.448;8.612;2022-08-03T13:09:29;37.20;25.70
1107;DHT22;540;49.448;8.612;2022-08-03T13:12:08;37.10;25.80
1107;DHT22;540;49.448;8.612;2022-08-03T13:14:36;37.10;26.00
1107;DHT22;540;49.448;8.612;2022-08-03T13:17:06;37.00;26.20
1107;DHT22;540;49.448;8.612;2022-08-03T13:19:35;36.80;26.30
1107;DHT22;540;49.448;8.612;2022-08-03T13:22:10;36.90;26.70
1107;DHT22;540;49.448;8.612;2022-08-03T13:24:38;36.60;26.80
1107;DHT22;540;49.448;8.612;2022-08-03T13:27:07;36.50;26.20
1107;DHT22;540;49.448;8.612;2022-08-03T13:29:55;36.40;26.40
1107;DHT22;540;49.448;8.612;2022-08-03T13:32:25;36.60;26.50
1107;DHT22;540;49.448;8.612;2022-08-03T13:34:53;36.60;26.40
1107;DHT22;540;49.448;8.612;2022-08-03T13:37:20;36.70;26.10
1107;DHT22;540;49.448;8.612;2022-08-03T13:39:49;36.70;26.30
1107;DHT22;540;49.448;8.612;2022-08-03T13:42:27;36.60;26.30
1107;DHT22;540;49.448;8.612;2022-08-03T13:44:55;36.60;26.20
1107;DHT22;540;49.448;8.612;2022-08-03T13:47:24;36.60;26.60
1107;DHT22;540;49.448;8.612;2022-08-03T13:49:52;36.40;26.50
1107;DHT22;540;49.448;8.612;2022-08-03T13:52:29;36.40;26.70
1107;DHT22;540;49.448;8.612;2022-08-03T13:54:56;36.50;26.70
1107;DHT22;540;49.448;8.612;2022-08-03T13:57:25;36.40;26.50
1107;DHT22;540;49.448;8.612;2022-08-03T14:00:14;36.40;26.70
1107;DHT22;540;49.448;8.612;2022-08-03T14:02:56;36.60;26.50
1107;DHT22;540;49.448;8.612;2022-08-03T14:05:32;36.70;26.30
1107;DHT22;540;49.448;8.612;2022-08-03T14:08:01;36.60;26.80
1107;DHT22;540;49.448;8.612;2022-08-03T14:10:32;36.70;26.70
1107;DHT22;540;49.448;8.612;2022-08-03T14:13:00;36.60;27.00
1107;DHT22;540;49.448;8.612;2022-08-03T14:15:28;36.50;27.00
1107;DHT22;540;49.448;8.612;2022-08-03T14:17:58;36.30;26.90
1107;DHT22;540;49.448;8.612;2022-08-03T14:20:28;36.60;26.80
1107;DHT22;540;49.448;8.612;2022-08-03T14:23:12;36.80;26.50
1107;DHT22;540;49.448;8.612;2022-08-03T14:25:40;36.60;26.30
1107;DHT22;540;49.448;8.612;2022-08-03T14:28:16;36.60;26.50
1107;DHT22;540;49.448;8.612;2022-08-03T14:30:44;36.40;26.30
1107;DHT22;540;49.448;8.612;2022-08-03T14:33:14;36.40;26.40
1107;DHT22;540;49.448;8.612;2022-08-03T14:35:42;36.60;26.20
1107;DHT22;540;49.448;8.612;2022-08-03T14:38:10;36.50;26.30
1107;DHT22;540;49.448;8.612;2022-08-03T14:40:38;36.40;26.20
1107;DHT22;540;49.448;8.612;2022-08-03T14:43:06;36.40;26.60
1107;DHT22;540;49.448;8.612;2022-08-03T14:45:33;36.50;26.50
1107;DHT22;540;49.448;8.612;2022-08-03T14:48:01;36.40;26.40
1107;DHT22;540;49.448;8.612;2022-08-03T14:50:51;36.10;26.50
1107;DHT22;540;49.448;8.612;2022-08-03T14:53:20;36.10;26.40
1107;DHT22;540;49.448;8.612;2022-08-03T14:55:48;36.00;26.50
1107;DHT22;540;49.448;8.612;2022-08-03T14:58:18;35.80;26.90
1107;DHT22;540;49.448;8.612;2022-08-03T15:00:48;35.80;26.80
1107;DHT22;540;49.448;8.612;2022-08-03T15:03:16;35.90;26.60
1107;DHT22;540;49.448;8.612;2022-08-03T15:05:46;35.80;26.70
1107;DHT22;540;49.448;8.612;2022-08-03T15:08:15;35.80;26.60
1107;DHT22;540;49.448;8.612;2022-08-03T15:10:43;35.80;26.70
1107;DHT22;540;49.448;8.612;2022-08-03T15:13:11;35.70;26.30
1107;DHT22;540;49.448;8.612;2022-08-03T15:15:39;35.70;26.50
1107;DHT22;540;49.448;8.612;2022-08-03T15:18:07;35.60;26.90
1107;DHT22;540;49.448;8.612;2022-08-03T15:20:37;35.70;26.70
1107;DHT22;540;49.448;8.612;2022-08-03T15:23:11;35.70;26.50
1107;DHT22;540;49.448;8.612;2022-08-03T15:25:40;35.70;26.60
1107;DHT22;540;49.448;8.612;2022-08-03T15:28:29;35.60;27.00
1107;DHT22;540;49.448;8.612;2022-08-03T15:30:57;35.60;26.90
1107;DHT22;540;49.448;8.612;2022-08-03T15:33:24;35.50;26.50
1107;DHT22;540;49.448;8.612;2022-08-03T15:35:53;35.30;26.80
1107;DHT22;540;49.448;8.612;2022-08-03T15:38:21;35.30;27.30
1107;DHT22;540;49.448;8.612;2022-08-03T15:40:53;35.30;27.10
1107;DHT22;540;49.448;8.612;2022-08-03T15:43:22;35.20;27.30
1107;DHT22;540;49.448;8.612;2022-08-03T15:45:50;35.20;27.60
1107;DHT22;540;49.448;8.612;2022-08-03T15:48:38;35.40;27.30
1107;DHT22;540;49.448;8.612;2022-08-03T15:51:06;35.60;26.90
1107;DHT22;540;49.448;8.612;2022-08-03T15:53:34;35.60;26.90
1107;DHT22;540;49.448;8.612;2022-08-03T15:56:04;35.60;26.90
1107;DHT22;540;49.448;8.612;2022-08-03T15:58:38;35.60;26.80
1107;DHT22;540;49.448;8.612;2022-08-03T16:01:26;35.60;26.90
1107;DHT22;540;49.448;8.612;2022-08-03T16:03:54;35.60;26.80
1107;DHT22;540;49.448;8.612;2022-08-03T16:06:21;35.50;27.00
1107;DHT22;540;49.448;8.612;2022-08-03T16:09:03;35.40;27.10
1107;DHT22;540;49.448;8.612;2022-08-03T16:11:51;35.30;27.10
1107;DHT22;540;49.448;8.612;2022-08-03T16:14:19;35.30;27.10
1107;DHT22;540;49.448;8.612;2022-08-03T16:17:03;35.30;27.40
1107;DHT22;540;49.448;8.612;2022-08-03T16:19:31;35.20;27.10
1107;DHT22;540;49.448;8.612;2022-08-03T16:22:01;35.20;27.10
1107;DHT22;540;49.448;8.612;2022-08-03T16:24:29;35.20;27.10
1107;DHT22;540;49.448;8.612;2022-08-03T16:26:58;35.10;27.40
1107;DHT22;540;49.448;8.612;2022-08-03T16:29:27;35.20;27.40
1107;DHT22;540;49.448;8.612;2022-08-03T16:31:55;35.20;27.20
1107;DHT22;540;49.448;8.612;2022-08-03T16:34:23;35.20;28.10
1107;DHT22;540;49.448;8.612;2022-08-03T16:36:50;35.20;27.20
1107;DHT22;540;49.448;8.612;2022-08-03T16:39:20;35.20;27.60
1107;DHT22;540;49.448;8.612;2022-08-03T16:41:48;35.20;27.50
1107;DHT22;540;49.448;8.612;2022-08-03T16:44:28;35.00;28.00
1107;DHT22;540;49.448;8.612;2022-08-03T16:46:56;35.00;28.10
1107;DHT22;540;49.448;8.612;2022-08-03T16:49:24;35.00;27.80
1107;DHT22;540;49.448;8.612;2022-08-03T16:52:12;35.20;27.00
1107;DHT22;540;49.448;8.612;2022-08-03T16:54:42;35.20;27.40
1107;DHT22;540;49.448;8.612;2022-08-03T16:57:19;35.20;27.60
1107;DHT22;540;49.448;8.612;2022-08-03T17:00:10;35.10;27.60
1107;DHT22;540;49.448;8.612;2022-08-03T17:03:00;34.90;27.20
1107;DHT22;540;49.448;8.612;2022-08-03T17:05:38;35.00;27.50